Aeroporto :
LOGIN :

Iscrizione | Disclaimer

   EN    FR    IT 

 










Sommario :    VFR   VFR Marginale   IFR   IFR Intensivo   IFR Molto Intensivo
Visibilità : 
Base nubi : 
>= 8 km
>= 3000ft
5 / 8 km
1000 / 3000 ft
1500m / 5 km
500 / 1000 ft
800 / 1500m
200 / 500 ft
< 800m
< 200 ft
Simboli :   Temporali  Nebbia  Neve Forte  Precipitazioni Forti  Vento > 20 kt
SIGMETs :   Varie  Temporali  Ghiacco  Turbolenza  Onda orograficha  Ceneri Vulcaniche






- Altitudine del aeroporto : 1548 ft


LKNA - Náměšť Air Base

ULTIMO METAR :
  • 231930Z 10010KT 0700 R12/P2000 -RA FG OVC001 06/05 Q0998 NOSIG RMK RED RED

METARs OBSOLETI :
  • 231911Z 11011KT 0600 R12/P2000 -RA FG OVC002 05/05 Q0998 RMK RED
  • 231900Z 10010KT 1000 R12/P2000 -RA BR OVC003 05/05 Q0998 NOSIG RMK AMB AMB
  • 231830Z 09007KT 050V110 5000 -RA BR OVC003 05/04 Q0999 NOSIG RMK YLO YLO
  • 231800Z 05006KT 9999 -RA OVC004 04/04 Q0999 NOSIG RMK YLO YLO
  • 231730Z 04005KT 9999 -RA BKN007 OVC020 04/03 Q0999 NOSIG RMK GRN GRN
  • 231700Z 03004KT 5000 -RA BR FEW002 BKN010 OVC020 04/03 Q0999 NOSIG RMK GRN GRN
  • 231630Z 04005KT 4000 -RA BR SCT006 OVC015 04/03 Q1000 NOSIG RMK GRN GRN
  • 231600Z 05004KT 5000 -RA BR FEW020 OVC029 04/03 Q1000 NOSIG RMK WHT WHT
  • 231530Z 08005KT 8000 -RA BKN015 OVC033 04/03 Q1000 NOSIG RMK WHT WHT
  • 231500Z 09005KT 9999 -RA FEW020 OVC036 04/02 Q1000 NOSIG RMK BLU BLU

TAF TAF LKNA
Valido dal 23 a 18 ore il 24 a 18 ore UTC


231700Z 2318/2418 08006KT 5000 RA BR SCT010 BKN015
TEMPO 2318/2402 15012KT 3000 RA BR SCT003 BKN008
PROB40
TEMPO 2318/2402 1200 RA BR BKN002 OVC006
BECMG 2401/2403 27008KT
BECMG 2407/2409 9999 NSW BKN020



MetMap, La meteo Aeronautica in un colpo d'occhio ! - Copyright ORBIFLY Dicembre 2007 - Disclaimer

ORBIFLY MET'MAP TEAM :

Programmazione e sviluppo : Alexandra Zaïnal
Concezione : Baudouin d'Aumeries
Supporto tecnico e logistico : Manuel Goepfert
Aiuto : Marc-Olivier Méhu
Aiuto per la traduzione : Arnaldo La Scala




FONTI E CREDITI :

   NOAA